sensor_id;sensor_type;location;lat;lon;timestamp;P1;durP1;ratioP1;P2;durP2;ratioP2
7211;SDS011;3647;48.792;9.802;2023-02-15T07:42:31;27.33;;;17.63;;
7211;SDS011;3647;48.792;9.802;2023-02-15T07:44:58;31.67;;;18.73;;
7211;SDS011;3647;48.792;9.802;2023-02-15T07:47:26;26.43;;;16.63;;
7211;SDS011;3647;48.792;9.802;2023-02-15T07:49:53;29.30;;;17.63;;
7211;SDS011;3647;48.792;9.802;2023-02-15T07:52:20;26.57;;;17.20;;
7211;SDS011;3647;48.792;9.802;2023-02-15T07:54:47;25.83;;;17.97;;
7211;SDS011;3647;48.792;9.802;2023-02-15T07:57:14;26.00;;;16.50;;
7211;SDS011;3647;48.792;9.802;2023-02-15T07:59:42;30.13;;;17.73;;
7211;SDS011;3647;48.792;9.802;2023-02-15T08:02:09;27.70;;;17.40;;
7211;SDS011;3647;48.792;9.802;2023-02-15T08:04:37;25.87;;;17.20;;
7211;SDS011;3647;48.792;9.802;2023-02-15T08:07:04;27.50;;;16.63;;
7211;SDS011;3647;48.792;9.802;2023-02-15T08:09:31;27.20;;;17.47;;
7211;SDS011;3647;48.792;9.802;2023-02-15T08:11:58;28.20;;;17.20;;
7211;SDS011;3647;48.792;9.802;2023-02-15T08:14:26;34.50;;;20.40;;
7211;SDS011;3647;48.792;9.802;2023-02-15T08:16:55;33.17;;;20.97;;
7211;SDS011;3647;48.792;9.802;2023-02-15T08:19:28;29.10;;;19.10;;
7211;SDS011;3647;48.792;9.802;2023-02-15T08:21:57;32.67;;;18.30;;
7211;SDS011;3647;48.792;9.802;2023-02-15T08:24:25;28.10;;;18.73;;
7211;SDS011;3647;48.792;9.802;2023-02-15T08:26:54;32.70;;;19.80;;
7211;SDS011;3647;48.792;9.802;2023-02-15T08:29:21;31.60;;;19.00;;
7211;SDS011;3647;48.792;9.802;2023-02-15T08:31:52;34.87;;;21.13;;
7211;SDS011;3647;48.792;9.802;2023-02-15T08:34:21;34.87;;;20.47;;
7211;SDS011;3647;48.792;9.802;2023-02-15T08:36:47;32.90;;;19.57;;
7211;SDS011;3647;48.792;9.802;2023-02-15T08:39:15;32.87;;;20.33;;
7211;SDS011;3647;48.792;9.802;2023-02-15T08:41:42;33.53;;;20.53;;
7211;SDS011;3647;48.792;9.802;2023-02-15T08:44:10;32.77;;;19.37;;
7211;SDS011;3647;48.792;9.802;2023-02-15T08:46:38;32.77;;;19.30;;
7211;SDS011;3647;48.792;9.802;2023-02-15T08:49:06;29.00;;;17.77;;
7211;SDS011;3647;48.792;9.802;2023-02-15T08:51:36;27.53;;;17.33;;
7211;SDS011;3647;48.792;9.802;2023-02-15T08:54:06;29.37;;;17.33;;
7211;SDS011;3647;48.792;9.802;2023-02-15T08:56:35;31.10;;;16.67;;
7211;SDS011;3647;48.792;9.802;2023-02-15T08:59:04;27.67;;;17.17;;
7211;SDS011;3647;48.792;9.802;2023-02-15T09:01:33;29.10;;;17.20;;
7211;SDS011;3647;48.792;9.802;2023-02-15T09:04:01;37.63;;;18.27;;
7211;SDS011;3647;48.792;9.802;2023-02-15T09:06:30;29.63;;;19.10;;
7211;SDS011;3647;48.792;9.802;2023-02-15T09:08:58;33.87;;;18.00;;
7211;SDS011;3647;48.792;9.802;2023-02-15T09:11:26;34.57;;;19.63;;
7211;SDS011;3647;48.792;9.802;2023-02-15T09:13:55;30.47;;;19.03;;
7211;SDS011;3647;48.792;9.802;2023-02-15T09:16:23;28.87;;;18.93;;
7211;SDS011;3647;48.792;9.802;2023-02-15T09:18:51;30.13;;;18.83;;
7211;SDS011;3647;48.792;9.802;2023-02-15T09:21:19;28.37;;;18.73;;
7211;SDS011;3647;48.792;9.802;2023-02-15T09:23:47;29.23;;;17.63;;
7211;SDS011;3647;48.792;9.802;2023-02-15T09:26:18;28.17;;;17.67;;
7211;SDS011;3647;48.792;9.802;2023-02-15T09:28:47;26.83;;;17.13;;
7211;SDS011;3647;48.792;9.802;2023-02-15T09:31:18;30.83;;;17.83;;
7211;SDS011;3647;48.792;9.802;2023-02-15T09:33:46;28.67;;;17.23;;
7211;SDS011;3647;48.792;9.802;2023-02-15T09:36:15;27.07;;;15.73;;
7211;SDS011;3647;48.792;9.802;2023-02-15T09:38:44;24.27;;;15.27;;
7211;SDS011;3647;48.792;9.802;2023-02-15T09:41:19;26.33;;;16.53;;
7211;SDS011;3647;48.792;9.802;2023-02-15T09:43:57;23.03;;;16.37;;
7211;SDS011;3647;48.792;9.802;2023-02-15T09:46:41;25.27;;;17.30;;
7211;SDS011;3647;48.792;9.802;2023-02-15T09:49:25;24.90;;;15.93;;
7211;SDS011;3647;48.792;9.802;2023-02-15T09:52:05;23.13;;;15.27;;
7211;SDS011;3647;48.792;9.802;2023-02-15T09:54:45;25.43;;;17.33;;
7211;SDS011;3647;48.792;9.802;2023-02-15T09:57:29;25.83;;;15.67;;
7211;SDS011;3647;48.792;9.802;2023-02-15T10:00:05;22.20;;;16.57;;
7211;SDS011;3647;48.792;9.802;2023-02-15T10:02:44;26.27;;;15.80;;
7211;SDS011;3647;48.792;9.802;2023-02-15T10:05:25;23.90;;;15.70;;
7211;SDS011;3647;48.792;9.802;2023-02-15T10:08:25;23.17;;;15.83;;
7211;SDS011;3647;48.792;9.802;2023-02-15T10:11:07;20.50;;;14.03;;
7211;SDS011;3647;48.792;9.802;2023-02-15T10:14:02;19.23;;;14.33;;
7211;SDS011;3647;48.792;9.802;2023-02-15T10:16:45;20.47;;;14.40;;
7211;SDS011;3647;48.792;9.802;2023-02-15T10:19:23;21.00;;;13.13;;
7211;SDS011;3647;48.792;9.802;2023-02-15T10:21:59;18.27;;;13.10;;
7211;SDS011;3647;48.792;9.802;2023-02-15T10:24:45;24.00;;;14.87;;
7211;SDS011;3647;48.792;9.802;2023-02-15T10:27:22;21.13;;;14.23;;
7211;SDS011;3647;48.792;9.802;2023-02-15T10:29:53;20.33;;;14.70;;
7211;SDS011;3647;48.792;9.802;2023-02-15T10:32:30;20.47;;;14.87;;
7211;SDS011;3647;48.792;9.802;2023-02-15T10:35:03;23.30;;;15.20;;
7211;SDS011;3647;48.792;9.802;2023-02-15T10:37:46;21.13;;;14.37;;
7211;SDS011;3647;48.792;9.802;2023-02-15T10:40:25;17.80;;;13.63;;
7211;SDS011;3647;48.792;9.802;2023-02-15T10:43:03;21.53;;;14.23;;
7211;SDS011;3647;48.792;9.802;2023-02-15T10:45:46;21.87;;;15.40;;
7211;SDS011;3647;48.792;9.802;2023-02-15T10:48:32;23.00;;;14.17;;
7211;SDS011;3647;48.792;9.802;2023-02-15T10:51:12;21.53;;;14.27;;
7211;SDS011;3647;48.792;9.802;2023-02-15T10:53:51;21.10;;;14.30;;
7211;SDS011;3647;48.792;9.802;2023-02-15T10:56:31;22.33;;;14.77;;
7211;SDS011;3647;48.792;9.802;2023-02-15T10:59:06;23.97;;;14.40;;
7211;SDS011;3647;48.792;9.802;2023-02-15T11:01:51;19.37;;;14.07;;
7211;SDS011;3647;48.792;9.802;2023-02-15T11:04:39;19.17;;;14.10;;
7211;SDS011;3647;48.792;9.802;2023-02-15T11:07:16;23.10;;;14.90;;
7211;SDS011;3647;48.792;9.802;2023-02-15T11:09:47;22.57;;;13.97;;
7211;SDS011;3647;48.792;9.802;2023-02-15T11:12:16;20.43;;;14.60;;
7211;SDS011;3647;48.792;9.802;2023-02-15T11:14:48;19.90;;;14.27;;
7211;SDS011;3647;48.792;9.802;2023-02-15T11:17:23;20.17;;;15.40;;
7211;SDS011;3647;48.792;9.802;2023-02-15T11:19:56;20.03;;;14.13;;
7211;SDS011;3647;48.792;9.802;2023-02-15T11:22:28;21.87;;;15.33;;
7211;SDS011;3647;48.792;9.802;2023-02-15T11:24:57;19.43;;;14.47;;
7211;SDS011;3647;48.792;9.802;2023-02-15T11:27:25;18.60;;;13.73;;
7211;SDS011;3647;48.792;9.802;2023-02-15T11:29:57;20.83;;;14.40;;
7211;SDS011;3647;48.792;9.802;2023-02-15T11:32:28;23.00;;;14.77;;
7211;SDS011;3647;48.792;9.802;2023-02-15T11:34:59;19.47;;;13.93;;
7211;SDS011;3647;48.792;9.802;2023-02-15T11:37:31;20.17;;;13.57;;
7211;SDS011;3647;48.792;9.802;2023-02-15T11:40:03;19.90;;;13.53;;
7211;SDS011;3647;48.792;9.802;2023-02-15T11:42:43;21.13;;;13.70;;
7211;SDS011;3647;48.792;9.802;2023-02-15T11:45:18;23.30;;;14.43;;
7211;SDS011;3647;48.792;9.802;2023-02-15T11:47:50;21.47;;;14.07;;
7211;SDS011;3647;48.792;9.802;2023-02-15T11:50:19;17.83;;;14.00;;
7211;SDS011;3647;48.792;9.802;2023-02-15T11:52:50;18.00;;;13.27;;
7211;SDS011;3647;48.792;9.802;2023-02-15T11:55:19;17.97;;;13.07;;
7211;SDS011;3647;48.792;9.802;2023-02-15T11:57:50;19.13;;;12.47;;
7211;SDS011;3647;48.792;9.802;2023-02-15T12:00:24;18.60;;;12.53;;
7211;SDS011;3647;48.792;9.802;2023-02-15T12:03:02;19.47;;;11.83;;
7211;SDS011;3647;48.792;9.802;2023-02-15T12:05:36;15.07;;;11.13;;
7211;SDS011;3647;48.792;9.802;2023-02-15T12:08:09;16.33;;;10.57;;
7211;SDS011;3647;48.792;9.802;2023-02-15T12:10:40;14.23;;;10.67;;
7211;SDS011;3647;48.792;9.802;2023-02-15T12:13:13;15.70;;;11.10;;
7211;SDS011;3647;48.792;9.802;2023-02-15T12:15:42;18.80;;;10.00;;
7211;SDS011;3647;48.792;9.802;2023-02-15T12:18:18;14.27;;;10.53;;
7211;SDS011;3647;48.792;9.802;2023-02-15T12:20:47;15.83;;;10.73;;
7211;SDS011;3647;48.792;9.802;2023-02-15T12:23:16;14.63;;;10.10;;
7211;SDS011;3647;48.792;9.802;2023-02-15T12:25:49;15.43;;;10.73;;
7211;SDS011;3647;48.792;9.802;2023-02-15T12:28:30;15.67;;;10.80;;
7211;SDS011;3647;48.792;9.802;2023-02-15T12:31:00;13.97;;;9.33;;
7211;SDS011;3647;48.792;9.802;2023-02-15T12:33:31;12.13;;;9.27;;
7211;SDS011;3647;48.792;9.802;2023-02-15T12:36:03;14.10;;;8.87;;
7211;SDS011;3647;48.792;9.802;2023-02-15T12:38:37;14.43;;;9.10;;
7211;SDS011;3647;48.792;9.802;2023-02-15T12:41:10;13.77;;;10.23;;
7211;SDS011;3647;48.792;9.802;2023-02-15T12:43:58;13.80;;;9.07;;
7211;SDS011;3647;48.792;9.802;2023-02-15T12:46:31;15.47;;;9.63;;
7211;SDS011;3647;48.792;9.802;2023-02-15T12:49:06;12.77;;;8.70;;
7211;SDS011;3647;48.792;9.802;2023-02-15T12:51:43;11.80;;;7.73;;
7211;SDS011;3647;48.792;9.802;2023-02-15T12:54:37;12.73;;;8.40;;
7211;SDS011;3647;48.792;9.802;2023-02-15T12:57:13;11.57;;;7.53;;
7211;SDS011;3647;48.792;9.802;2023-02-15T12:59:51;10.27;;;7.17;;
7211;SDS011;3647;48.792;9.802;2023-02-15T13:02:21;10.90;;;7.23;;
7211;SDS011;3647;48.792;9.802;2023-02-15T13:04:53;9.90;;;7.43;;
7211;SDS011;3647;48.792;9.802;2023-02-15T13:07:21;8.03;;;6.97;;
7211;SDS011;3647;48.792;9.802;2023-02-15T13:09:50;10.37;;;6.50;;
7211;SDS011;3647;48.792;9.802;2023-02-15T13:12:18;12.37;;;7.10;;
7211;SDS011;3647;48.792;9.802;2023-02-15T13:14:48;8.87;;;7.13;;
7211;SDS011;3647;48.792;9.802;2023-02-15T13:17:17;8.17;;;6.30;;
7211;SDS011;3647;48.792;9.802;2023-02-15T13:19:49;8.57;;;7.20;;
7211;SDS011;3647;48.792;9.802;2023-02-15T13:22:20;9.03;;;7.17;;
7211;SDS011;3647;48.792;9.802;2023-02-15T13:24:50;8.67;;;6.77;;
7211;SDS011;3647;48.792;9.802;2023-02-15T13:27:21;8.70;;;6.57;;
7211;SDS011;3647;48.792;9.802;2023-02-15T13:29:51;8.20;;;6.67;;
7211;SDS011;3647;48.792;9.802;2023-02-15T13:32:25;10.90;;;7.23;;
7211;SDS011;3647;48.792;9.802;2023-02-15T13:34:57;9.27;;;7.07;;
7211;SDS011;3647;48.792;9.802;2023-02-15T13:37:32;10.27;;;6.63;;
7211;SDS011;3647;48.792;9.802;2023-02-15T13:40:11;8.50;;;6.63;;
7211;SDS011;3647;48.792;9.802;2023-02-15T13:42:42;9.70;;;7.13;;
7211;SDS011;3647;48.792;9.802;2023-02-15T13:45:26;9.60;;;6.03;;
7211;SDS011;3647;48.792;9.802;2023-02-15T13:48:04;7.30;;;6.20;;
7211;SDS011;3647;48.792;9.802;2023-02-15T13:50:47;16.50;;;7.73;;
7211;SDS011;3647;48.792;9.802;2023-02-15T13:56:25;8.63;;;6.63;;
7211;SDS011;3647;48.792;9.802;2023-02-15T13:59:13;8.47;;;7.03;;
7211;SDS011;3647;48.792;9.802;2023-02-15T14:01:52;8.23;;;6.63;;
7211;SDS011;3647;48.792;9.802;2023-02-15T14:07:29;9.90;;;6.90;;
7211;SDS011;3647;48.792;9.802;2023-02-15T14:10:20;8.77;;;6.67;;
7211;SDS011;3647;48.792;9.802;2023-02-15T14:12:58;9.23;;;6.53;;
7211;SDS011;3647;48.792;9.802;2023-02-15T14:15:38;10.27;;;7.00;;
7211;SDS011;3647;48.792;9.802;2023-02-15T14:18:12;10.57;;;7.27;;
7211;SDS011;3647;48.792;9.802;2023-02-15T14:20:49;9.83;;;6.33;;
7211;SDS011;3647;48.792;9.802;2023-02-15T14:23:27;9.37;;;6.63;;
7211;SDS011;3647;48.792;9.802;2023-02-15T14:26:04;8.00;;;6.30;;
7211;SDS011;3647;48.792;9.802;2023-02-15T14:28:37;10.20;;;6.40;;
7211;SDS011;3647;48.792;9.802;2023-02-15T14:31:12;8.60;;;6.57;;
7211;SDS011;3647;48.792;9.802;2023-02-15T14:33:41;7.83;;;6.30;;
7211;SDS011;3647;48.792;9.802;2023-02-15T14:36:16;8.53;;;6.67;;
7211;SDS011;3647;48.792;9.802;2023-02-15T14:38:54;8.97;;;6.50;;
7211;SDS011;3647;48.792;9.802;2023-02-15T14:41:28;7.37;;;6.40;;
7211;SDS011;3647;48.792;9.802;2023-02-15T14:44:01;7.87;;;6.67;;
7211;SDS011;3647;48.792;9.802;2023-02-15T14:46:35;9.30;;;6.63;;
7211;SDS011;3647;48.792;9.802;2023-02-15T14:49:09;11.07;;;6.63;;
7211;SDS011;3647;48.792;9.802;2023-02-15T14:57:23;9.30;;;7.03;;
7211;SDS011;3647;48.792;9.802;2023-02-15T14:59:56;8.90;;;6.73;;
7211;SDS011;3647;48.792;9.802;2023-02-15T15:02:25;7.30;;;6.17;;
7211;SDS011;3647;48.792;9.802;2023-02-15T15:04:56;9.00;;;6.27;;
7211;SDS011;3647;48.792;9.802;2023-02-15T15:07:27;7.90;;;6.27;;
7211;SDS011;3647;48.792;9.802;2023-02-15T15:10:03;7.87;;;6.73;;
7211;SDS011;3647;48.792;9.802;2023-02-15T15:12:41;8.70;;;5.87;;
7211;SDS011;3647;48.792;9.802;2023-02-15T15:15:11;9.00;;;6.67;;
7211;SDS011;3647;48.792;9.802;2023-02-15T15:17:53;11.80;;;6.83;;
7211;SDS011;3647;48.792;9.802;2023-02-15T15:28:55;8.37;;;5.83;;
7211;SDS011;3647;48.792;9.802;2023-02-15T15:31:26;8.33;;;5.97;;
7211;SDS011;3647;48.792;9.802;2023-02-15T15:40:40;10.60;;;6.83;;
7211;SDS011;3647;48.792;9.802;2023-02-15T15:43:29;9.33;;;6.17;;
7211;SDS011;3647;48.792;9.802;2023-02-15T15:46:33;7.70;;;5.23;;
7211;SDS011;3647;48.792;9.802;2023-02-15T15:49:15;8.70;;;5.80;;
7211;SDS011;3647;48.792;9.802;2023-02-15T15:51:45;8.50;;;6.50;;
7211;SDS011;3647;48.792;9.802;2023-02-15T15:54:14;7.47;;;6.20;;
7211;SDS011;3647;48.792;9.802;2023-02-15T15:56:43;9.40;;;6.23;;
7211;SDS011;3647;48.792;9.802;2023-02-15T15:59:17;11.37;;;5.93;;
7211;SDS011;3647;48.792;9.802;2023-02-15T16:01:46;9.40;;;7.10;;
7211;SDS011;3647;48.792;9.802;2023-02-15T16:04:23;12.23;;;7.73;;
7211;SDS011;3647;48.792;9.802;2023-02-15T16:06:51;13.80;;;8.30;;
7211;SDS011;3647;48.792;9.802;2023-02-15T16:09:19;12.43;;;7.37;;
7211;SDS011;3647;48.792;9.802;2023-02-15T16:11:47;9.53;;;6.73;;
7211;SDS011;3647;48.792;9.802;2023-02-15T16:14:19;8.67;;;6.53;;
7211;SDS011;3647;48.792;9.802;2023-02-15T16:16:52;9.57;;;7.23;;
7211;SDS011;3647;48.792;9.802;2023-02-15T16:19:22;9.07;;;7.13;;
7211;SDS011;3647;48.792;9.802;2023-02-15T16:21:52;8.90;;;6.50;;
7211;SDS011;3647;48.792;9.802;2023-02-15T16:24:33;13.77;;;10.30;;
7211;SDS011;3647;48.792;9.802;2023-02-15T16:27:21;14.87;;;12.80;;
7211;SDS011;3647;48.792;9.802;2023-02-15T16:30:08;14.70;;;11.53;;
7211;SDS011;3647;48.792;9.802;2023-02-15T16:32:44;21.67;;;17.77;;
7211;SDS011;3647;48.792;9.802;2023-02-15T16:35:13;19.00;;;14.00;;
7211;SDS011;3647;48.792;9.802;2023-02-15T16:37:41;14.30;;;11.57;;
7211;SDS011;3647;48.792;9.802;2023-02-15T16:40:12;15.20;;;11.93;;
7211;SDS011;3647;48.792;9.802;2023-02-15T16:43:05;15.73;;;11.27;;
7211;SDS011;3647;48.792;9.802;2023-02-15T16:45:38;14.53;;;10.43;;
7211;SDS011;3647;48.792;9.802;2023-02-15T16:48:05;11.20;;;8.13;;
7211;SDS011;3647;48.792;9.802;2023-02-15T16:50:38;13.80;;;8.60;;
7211;SDS011;3647;48.792;9.802;2023-02-15T16:53:06;17.23;;;10.83;;
7211;SDS011;3647;48.792;9.802;2023-02-15T16:55:41;14.33;;;10.57;;
7211;SDS011;3647;48.792;9.802;2023-02-15T16:58:12;14.70;;;10.33;;
7211;SDS011;3647;48.792;9.802;2023-02-15T17:00:42;15.80;;;10.27;;
7211;SDS011;3647;48.792;9.802;2023-02-15T17:03:19;19.17;;;13.17;;
7211;SDS011;3647;48.792;9.802;2023-02-15T17:05:50;17.03;;;12.50;;
7211;SDS011;3647;48.792;9.802;2023-02-15T17:08:18;17.40;;;11.87;;
7211;SDS011;3647;48.792;9.802;2023-02-15T17:11:01;17.27;;;10.47;;
7211;SDS011;3647;48.792;9.802;2023-02-15T17:13:32;15.40;;;9.37;;
7211;SDS011;3647;48.792;9.802;2023-02-15T17:18:58;15.03;;;9.60;;
7211;SDS011;3647;48.792;9.802;2023-02-15T17:21:28;13.47;;;9.07;;
7211;SDS011;3647;48.792;9.802;2023-02-15T17:23:58;10.87;;;8.73;;
7211;SDS011;3647;48.792;9.802;2023-02-15T17:26:29;12.53;;;8.67;;
7211;SDS011;3647;48.792;9.802;2023-02-15T17:28:59;11.47;;;8.63;;
7211;SDS011;3647;48.792;9.802;2023-02-15T17:31:30;15.93;;;9.70;;
7211;SDS011;3647;48.792;9.802;2023-02-15T17:33:59;16.90;;;11.40;;
7211;SDS011;3647;48.792;9.802;2023-02-15T17:36:27;14.80;;;10.97;;
7211;SDS011;3647;48.792;9.802;2023-02-15T17:39:00;14.57;;;11.40;;
7211;SDS011;3647;48.792;9.802;2023-02-15T17:41:32;14.33;;;9.60;;
7211;SDS011;3647;48.792;9.802;2023-02-15T17:44:02;17.87;;;11.80;;
7211;SDS011;3647;48.792;9.802;2023-02-15T17:46:32;14.67;;;10.57;;
7211;SDS011;3647;48.792;9.802;2023-02-15T17:49:01;14.23;;;11.10;;
7211;SDS011;3647;48.792;9.802;2023-02-15T17:51:30;14.23;;;11.00;;
7211;SDS011;3647;48.792;9.802;2023-02-15T17:53:57;16.40;;;11.30;;
7211;SDS011;3647;48.792;9.802;2023-02-15T17:56:41;18.50;;;10.93;;
7211;SDS011;3647;48.792;9.802;2023-02-15T17:59:11;13.23;;;9.77;;
7211;SDS011;3647;48.792;9.802;2023-02-15T18:01:41;15.53;;;11.53;;
7211;SDS011;3647;48.792;9.802;2023-02-15T18:04:28;18.50;;;12.77;;
7211;SDS011;3647;48.792;9.802;2023-02-15T18:07:15;25.63;;;14.67;;
7211;SDS011;3647;48.792;9.802;2023-02-15T18:10:01;18.70;;;12.00;;
7211;SDS011;3647;48.792;9.802;2023-02-15T18:12:46;23.37;;;13.37;;
7211;SDS011;3647;48.792;9.802;2023-02-15T18:15:12;21.57;;;15.10;;
7211;SDS011;3647;48.792;9.802;2023-02-15T18:17:41;29.83;;;18.60;;
7211;SDS011;3647;48.792;9.802;2023-02-15T18:20:14;18.17;;;12.97;;
7211;SDS011;3647;48.792;9.802;2023-02-15T18:22:45;21.13;;;13.23;;
7211;SDS011;3647;48.792;9.802;2023-02-15T18:25:12;20.97;;;14.03;;
7211;SDS011;3647;48.792;9.802;2023-02-15T18:27:40;18.47;;;12.43;;
7211;SDS011;3647;48.792;9.802;2023-02-15T18:30:07;19.33;;;11.53;;
7211;SDS011;3647;48.792;9.802;2023-02-15T18:32:38;14.53;;;10.83;;
7211;SDS011;3647;48.792;9.802;2023-02-15T18:35:08;19.47;;;11.40;;
7211;SDS011;3647;48.792;9.802;2023-02-15T18:37:40;16.47;;;11.70;;
7211;SDS011;3647;48.792;9.802;2023-02-15T18:40:12;19.47;;;12.80;;
7211;SDS011;3647;48.792;9.802;2023-02-15T18:42:41;22.00;;;13.10;;
7211;SDS011;3647;48.792;9.802;2023-02-15T18:45:12;20.30;;;14.17;;
7211;SDS011;3647;48.792;9.802;2023-02-15T18:47:42;18.87;;;12.90;;
7211;SDS011;3647;48.792;9.802;2023-02-15T18:50:10;17.13;;;12.43;;
7211;SDS011;3647;48.792;9.802;2023-02-15T18:52:37;20.67;;;13.50;;
7211;SDS011;3647;48.792;9.802;2023-02-15T18:55:12;25.33;;;14.87;;
7211;SDS011;3647;48.792;9.802;2023-02-15T18:57:42;26.33;;;17.10;;
7211;SDS011;3647;48.792;9.802;2023-02-15T19:00:13;26.27;;;16.87;;
7211;SDS011;3647;48.792;9.802;2023-02-15T19:02:43;23.67;;;16.63;;
7211;SDS011;3647;48.792;9.802;2023-02-15T19:05:10;27.30;;;18.17;;
7211;SDS011;3647;48.792;9.802;2023-02-15T19:07:38;31.70;;;18.87;;
7211;SDS011;3647;48.792;9.802;2023-02-15T19:10:07;26.30;;;17.47;;
7211;SDS011;3647;48.792;9.802;2023-02-15T19:12:40;27.40;;;15.43;;
7211;SDS011;3647;48.792;9.802;2023-02-15T19:15:09;26.43;;;15.63;;
7211;SDS011;3647;48.792;9.802;2023-02-15T19:17:41;24.07;;;14.30;;
7211;SDS011;3647;48.792;9.802;2023-02-15T19:20:13;27.47;;;16.40;;
7211;SDS011;3647;48.792;9.802;2023-02-15T19:22:41;23.90;;;13.90;;
7211;SDS011;3647;48.792;9.802;2023-02-15T19:25:12;19.23;;;14.33;;
7211;SDS011;3647;48.792;9.802;2023-02-15T19:27:41;27.07;;;16.77;;
7211;SDS011;3647;48.792;9.802;2023-02-15T19:30:12;21.63;;;13.27;;
7211;SDS011;3647;48.792;9.802;2023-02-15T19:32:41;23.70;;;14.13;;
7211;SDS011;3647;48.792;9.802;2023-02-15T19:35:13;19.07;;;12.00;;
7211;SDS011;3647;48.792;9.802;2023-02-15T19:37:42;17.17;;;12.43;;
7211;SDS011;3647;48.792;9.802;2023-02-15T19:40:15;26.80;;;15.07;;
7211;SDS011;3647;48.792;9.802;2023-02-15T19:42:45;23.13;;;13.27;;
7211;SDS011;3647;48.792;9.802;2023-02-15T19:45:12;19.80;;;13.60;;
7211;SDS011;3647;48.792;9.802;2023-02-15T19:47:40;20.90;;;13.13;;
7211;SDS011;3647;48.792;9.802;2023-02-15T19:52:42;21.37;;;14.03;;
7211;SDS011;3647;48.792;9.802;2023-02-15T19:55:14;23.40;;;14.30;;
7211;SDS011;3647;48.792;9.802;2023-02-15T19:57:46;24.70;;;14.60;;
7211;SDS011;3647;48.792;9.802;2023-02-15T20:00:16;25.33;;;16.00;;
7211;SDS011;3647;48.792;9.802;2023-02-15T20:02:44;24.20;;;14.27;;
7211;SDS011;3647;48.792;9.802;2023-02-15T20:05:11;22.93;;;13.73;;
7211;SDS011;3647;48.792;9.802;2023-02-15T20:07:40;22.77;;;14.30;;
7211;SDS011;3647;48.792;9.802;2023-02-15T20:10:13;24.10;;;15.67;;
7211;SDS011;3647;48.792;9.802;2023-02-15T20:12:41;22.43;;;14.30;;
7211;SDS011;3647;48.792;9.802;2023-02-15T20:15:17;20.63;;;14.43;;
7211;SDS011;3647;48.792;9.802;2023-02-15T20:17:46;24.60;;;15.40;;
7211;SDS011;3647;48.792;9.802;2023-02-15T20:20:13;27.10;;;16.30;;
7211;SDS011;3647;48.792;9.802;2023-02-15T20:22:42;27.63;;;17.23;;
7211;SDS011;3647;48.792;9.802;2023-02-15T20:25:12;29.60;;;19.23;;
7211;SDS011;3647;48.792;9.802;2023-02-15T20:27:41;26.50;;;17.33;;
7211;SDS011;3647;48.792;9.802;2023-02-15T20:30:15;25.83;;;17.17;;
7211;SDS011;3647;48.792;9.802;2023-02-15T20:32:43;36.03;;;22.30;;
7211;SDS011;3647;48.792;9.802;2023-02-15T20:35:14;29.53;;;18.10;;
7211;SDS011;3647;48.792;9.802;2023-02-15T20:37:44;30.23;;;19.30;;
7211;SDS011;3647;48.792;9.802;2023-02-15T20:40:14;25.27;;;17.17;;
7211;SDS011;3647;48.792;9.802;2023-02-15T20:42:41;24.43;;;17.67;;
7211;SDS011;3647;48.792;9.802;2023-02-15T20:45:15;28.27;;;16.37;;
7211;SDS011;3647;48.792;9.802;2023-02-15T20:47:44;29.67;;;20.80;;
7211;SDS011;3647;48.792;9.802;2023-02-15T20:50:14;33.57;;;24.60;;
7211;SDS011;3647;48.792;9.802;2023-02-15T20:52:42;28.50;;;17.53;;
7211;SDS011;3647;48.792;9.802;2023-02-15T20:55:12;23.53;;;17.37;;
7211;SDS011;3647;48.792;9.802;2023-02-15T20:57:41;24.80;;;15.87;;
7211;SDS011;3647;48.792;9.802;2023-02-15T21:00:11;25.20;;;17.43;;
7211;SDS011;3647;48.792;9.802;2023-02-15T21:02:39;27.53;;;17.73;;
7211;SDS011;3647;48.792;9.802;2023-02-15T21:05:14;32.60;;;18.73;;
7211;SDS011;3647;48.792;9.802;2023-02-15T21:07:42;26.77;;;16.10;;
7211;SDS011;3647;48.792;9.802;2023-02-15T21:10:14;29.30;;;17.63;;
7211;SDS011;3647;48.792;9.802;2023-02-15T21:12:45;25.63;;;15.17;;
7211;SDS011;3647;48.792;9.802;2023-02-15T21:17:59;19.70;;;14.33;;
7211;SDS011;3647;48.792;9.802;2023-02-15T21:20:28;23.30;;;15.43;;
7211;SDS011;3647;48.792;9.802;2023-02-15T21:22:56;24.47;;;14.87;;
7211;SDS011;3647;48.792;9.802;2023-02-15T21:25:28;27.83;;;15.90;;
7211;SDS011;3647;48.792;9.802;2023-02-15T21:27:56;23.67;;;16.67;;
7211;SDS011;3647;48.792;9.802;2023-02-15T21:30:24;22.97;;;16.10;;
7211;SDS011;3647;48.792;9.802;2023-02-15T21:32:50;23.03;;;15.60;;
7211;SDS011;3647;48.792;9.802;2023-02-15T21:35:18;25.17;;;16.53;;
7211;SDS011;3647;48.792;9.802;2023-02-15T21:37:46;28.70;;;15.93;;
7211;SDS011;3647;48.792;9.802;2023-02-15T21:40:15;24.77;;;15.47;;
7211;SDS011;3647;48.792;9.802;2023-02-15T21:42:45;24.17;;;15.30;;
7211;SDS011;3647;48.792;9.802;2023-02-15T21:45:29;26.47;;;16.83;;
7211;SDS011;3647;48.792;9.802;2023-02-15T21:48:14;20.27;;;15.27;;
7211;SDS011;3647;48.792;9.802;2023-02-15T21:50:41;21.53;;;16.20;;
7211;SDS011;3647;48.792;9.802;2023-02-15T21:53:27;25.93;;;16.50;;
7211;SDS011;3647;48.792;9.802;2023-02-15T21:55:57;27.40;;;17.60;;
7211;SDS011;3647;48.792;9.802;2023-02-15T21:58:27;30.80;;;18.00;;
7211;SDS011;3647;48.792;9.802;2023-02-15T22:00:56;25.10;;;17.03;;
7211;SDS011;3647;48.792;9.802;2023-02-15T22:03:25;28.40;;;15.87;;
7211;SDS011;3647;48.792;9.802;2023-02-15T22:05:55;29.00;;;16.40;;
7211;SDS011;3647;48.792;9.802;2023-02-15T22:08:22;25.57;;;18.90;;
7211;SDS011;3647;48.792;9.802;2023-02-15T22:10:49;24.47;;;17.63;;
7211;SDS011;3647;48.792;9.802;2023-02-15T22:13:16;27.53;;;17.17;;
7211;SDS011;3647;48.792;9.802;2023-02-15T22:15:49;27.73;;;15.50;;
7211;SDS011;3647;48.792;9.802;2023-02-15T22:18:17;26.93;;;16.87;;
7211;SDS011;3647;48.792;9.802;2023-02-15T22:20:46;23.87;;;16.57;;
